Time,TemperatureF,DewpointF,PressureIn,WindDirection,WindDirectionDegrees,WindSpeedMPH,WindSpeedGustMPH,Humidity,HourlyPrecipIn,Conditions,Clouds,dailyrainin,SolarRadiationWatts/m^2,SoftwareType,DateUTC
2013-05-01 00:11:00,46.8,33.0,30.36,NNW,341,0.0,1.0,58,0.00,,,0.00,0,weatherlink.com 1.10,2013-05-01 04:11:00,
2013-05-01 00:27:00,46.6,33.0,30.36,NNW,341,0.0,1.0,60,0.00,,,0.00,0,weatherlink.com 1.10,2013-05-01 04:27:00,
2013-05-01 00:42:00,46.3,33.0,30.36,NNW,341,0.0,2.0,61,0.00,,,0.00,0,weatherlink.com 1.10,2013-05-01 04:42:00,
2013-05-01 00:57:00,46.0,33.0,30.36,NNW,341,0.0,2.0,62,0.00,,,0.00,0,weatherlink.com 1.10,2013-05-01 04:57:00,
2013-05-01 01:12:00,45.6,32.0,30.37,NNW,341,0.0,0.0,60,0.00,,,0.00,0,weatherlink.com 1.10,2013-05-01 05:12:00,
2013-05-01 01:27:00,45.3,33.0,30.37,NNW,341,0.0,0.0,63,0.00,,,0.00,0,weatherlink.com 1.10,2013-05-01 05:27:00,
2013-05-01 01:42:00,45.0,33.0,30.37,NNW,341,0.0,1.0,63,0.00,,,0.00,0,weatherlink.com 1.10,2013-05-01 05:42:00,
2013-05-01 01:57:00,44.5,33.0,30.37,NNW,341,0.0,0.0,65,0.00,,,0.00,0,weatherlink.com 1.10,2013-05-01 05:57:00,
2013-05-01 02:12:00,44.0,32.0,30.37,NNW,341,0.0,2.0,64,0.00,,,0.00,0,weatherlink.com 1.10,2013-05-01 06:12:00,
2013-05-01 02:27:00,44.0,33.0,30.38,NNW,341,0.0,1.0,65,0.00,,,0.00,0,weatherlink.com 1.10,2013-05-01 06:27:00,
2013-05-01 02:42:00,43.8,33.0,30.38,NNW,341,0.0,1.0,65,0.00,,,0.00,0,weatherlink.com 1.10,2013-05-01 06:42:00,
2013-05-01 02:57:00,43.3,33.0,30.38,NNW,341,0.0,0.0,68,0.00,,,0.00,0,weatherlink.com 1.10,2013-05-01 06:57:00,
2013-05-01 03:12:00,43.0,33.0,30.39,NNW,341,0.0,1.0,67,0.00,,,0.00,0,weatherlink.com 1.10,2013-05-01 07:12:00,
2013-05-01 03:27:00,42.8,33.0,30.39,NNW,341,0.0,2.0,69,0.00,,,0.00,0,weatherlink.com 1.10,2013-05-01 07:27:00,
2013-05-01 03:42:00,42.2,33.0,30.39,NNW,341,0.0,0.0,69,0.00,,,0.00,0,weatherlink.com 1.10,2013-05-01 07:42:00,
2013-05-01 03:57:00,41.5,33.0,30.40,NNW,341,0.0,0.0,72,0.00,,,0.00,0,weatherlink.com 1.10,2013-05-01 07:57:00,
2013-05-01 04:12:00,41.0,33.0,30.41,NNW,341,0.0,0.0,74,0.00,,,0.00,0,weatherlink.com 1.10,2013-05-01 08:12:00,
2013-05-01 04:27:00,40.2,33.0,30.41,NNW,341,0.0,0.0,76,0.00,,,0.00,0,weatherlink.com 1.10,2013-05-01 08:27:00,
2013-05-01 04:42:00,39.6,33.0,30.41,NNW,341,0.0,0.0,78,0.00,,,0.00,0,weatherlink.com 1.10,2013-05-01 08:42:00,
2013-05-01 04:57:00,39.5,34.0,30.41,NNW,341,0.0,1.0,81,0.00,,,0.00,0,weatherlink.com 1.10,2013-05-01 08:57:00,
2013-05-01 05:12:00,39.6,33.0,30.41,NNW,341,0.0,1.0,78,0.00,,,0.00,0,weatherlink.com 1.10,2013-05-01 09:12:00,
2013-05-01 05:27:00,39.0,33.0,30.41,NNW,341,0.0,0.0,78,0.00,,,0.00,0,weatherlink.com 1.10,2013-05-01 09:27:00,
2013-05-01 05:42:00,38.4,33.0,30.42,NNW,341,0.0,0.0,80,0.00,,,0.00,0,weatherlink.com 1.10,2013-05-01 09:42:00,
2013-05-01 05:57:00,38.0,32.0,30.43,NNW,341,0.0,0.0,80,0.00,,,0.00,7,weatherlink.com 1.10,2013-05-01 09:57:00,
2013-05-01 06:12:00,37.9,33.0,30.43,NNW,341,0.0,1.0,83,0.00,,,0.00,16,weatherlink.com 1.10,2013-05-01 10:12:00,
2013-05-01 06:27:00,38.5,34.0,30.43,NNW,341,0.0,1.0,83,0.00,,,0.00,21,weatherlink.com 1.10,2013-05-01 10:27:00,
2013-05-01 06:43:00,38.7,34.0,30.43,NNW,341,0.0,0.0,82,0.00,,,0.00,26,weatherlink.com 1.10,2013-05-01 10:43:00,
2013-05-01 06:58:00,39.5,35.0,30.44,NNW,341,0.0,0.0,83,0.00,,,0.00,30,weatherlink.com 1.10,2013-05-01 10:58:00,
2013-05-01 07:13:00,40.9,36.0,30.44,NNW,341,0.0,0.0,83,0.00,,,0.00,132,weatherlink.com 1.10,2013-05-01 11:13:00,
2013-05-01 07:28:00,43.2,35.0,30.45,NNW,341,0.0,0.0,74,0.00,,,0.00,63,weatherlink.com 1.10,2013-05-01 11:28:00,
2013-05-01 07:43:00,45.0,34.0,30.45,NNW,341,0.0,0.0,66,0.00,,,0.00,42,weatherlink.com 1.10,2013-05-01 11:43:00,
2013-05-01 07:58:00,47.7,36.0,30.45,NNW,341,0.0,1.0,63,0.00,,,0.00,44,weatherlink.com 1.10,2013-05-01 11:58:00,
2013-05-01 08:13:00,49.8,36.0,30.45,NNW,341,1.0,1.0,59,0.00,,,0.00,47,weatherlink.com 1.10,2013-05-01 12:13:00,
2013-05-01 08:28:00,52.0,37.0,30.46,NNW,341,0.0,1.0,56,0.00,,,0.00,121,weatherlink.com 1.10,2013-05-01 12:28:00,
2013-05-01 08:43:00,54.3,37.0,30.46,North,349,0.0,2.0,53,0.00,,,0.00,232,weatherlink.com 1.10,2013-05-01 12:43:00,
2013-05-01 08:58:00,56.4,38.0,30.46,East,96,0.0,2.0,50,0.00,,,0.00,490,weatherlink.com 1.10,2013-05-01 12:58:00,
2013-05-01 09:13:00,58.0,37.0,30.46,ESE,106,0.0,4.0,45,0.00,,,0.00,107,weatherlink.com 1.10,2013-05-01 13:13:00,
2013-05-01 09:28:00,58.9,32.0,30.46,ESE,113,1.0,4.0,36,0.00,,,0.00,190,weatherlink.com 1.10,2013-05-01 13:28:00,
2013-05-01 09:43:00,60.2,30.0,30.46,ESE,111,0.0,3.0,32,0.00,,,0.00,58,weatherlink.com 1.10,2013-05-01 13:43:00,
2013-05-01 09:58:00,60.5,29.0,30.46,ESE,109,2.0,7.0,30,0.00,,,0.00,58,weatherlink.com 1.10,2013-05-01 13:58:00,
2013-05-01 10:13:00,61.3,30.0,30.47,WSW,250,2.0,3.0,31,0.00,,,0.00,316,weatherlink.com 1.10,2013-05-01 14:13:00,
2013-05-01 10:28:00,62.7,28.0,30.47,East,99,2.0,3.0,27,0.00,,,0.00,76,weatherlink.com 1.10,2013-05-01 14:28:00,
2013-05-01 10:43:00,63.4,30.0,30.47,East,95,4.0,4.0,28,0.00,,,0.00,69,weatherlink.com 1.10,2013-05-01 14:43:00,
2013-05-01 10:58:00,63.6,29.0,30.46,SE,134,4.0,6.0,27,0.00,,,0.00,62,weatherlink.com 1.10,2013-05-01 14:58:00,
2013-05-01 11:13:00,64.3,31.0,30.46,SE,139,3.0,8.0,29,0.00,,,0.00,65,weatherlink.com 1.10,2013-05-01 15:13:00,
2013-05-01 11:28:00,64.6,30.0,30.46,WSW,244,2.0,5.0,27,0.00,,,0.00,63,weatherlink.com 1.10,2013-05-01 15:28:00,
2013-05-01 11:43:00,65.6,31.0,30.45,SW,236,1.0,4.0,27,0.00,,,0.00,415,weatherlink.com 1.10,2013-05-01 15:43:00,
2013-05-01 11:59:00,66.5,32.0,30.45,SE,138,2.0,3.0,28,0.00,,,0.00,65,weatherlink.com 1.10,2013-05-01 15:59:00,
2013-05-01 12:14:00,66.9,33.0,30.45,SSW,202,1.0,4.0,28,0.00,,,0.00,105,weatherlink.com 1.10,2013-05-01 16:14:00,
2013-05-01 12:29:00,67.0,31.0,30.44,ESE,111,4.0,7.0,26,0.00,,,0.00,63,weatherlink.com 1.10,2013-05-01 16:29:00,
2013-05-01 12:44:00,67.4,31.0,30.44,ENE,59,3.0,4.0,26,0.00,,,0.00,67,weatherlink.com 1.10,2013-05-01 16:44:00,
2013-05-01 12:59:00,67.9,32.0,30.43,SSE,155,2.0,8.0,26,0.00,,,0.00,88,weatherlink.com 1.10,2013-05-01 16:59:00,
2013-05-01 13:14:00,68.4,30.0,30.43,West,265,0.0,4.0,24,0.00,,,0.00,137,weatherlink.com 1.10,2013-05-01 17:14:00,
2013-05-01 13:29:00,69.7,32.0,30.43,South,173,3.0,4.0,25,0.00,,,0.00,373,weatherlink.com 1.10,2013-05-01 17:29:00,
2013-05-01 13:44:00,69.9,33.0,30.43,SSW,207,2.0,7.0,26,0.00,,,0.00,916,weatherlink.com 1.10,2013-05-01 17:44:00,
2013-05-01 13:59:00,70.2,35.0,30.43,SSE,159,1.0,5.0,28,0.00,,,0.00,884,weatherlink.com 1.10,2013-05-01 17:59:00,
2013-05-01 14:14:00,70.9,34.0,30.43,SSW,197,2.0,5.0,26,0.00,,,0.00,907,weatherlink.com 1.10,2013-05-01 18:14:00,
2013-05-01 14:29:00,71.2,34.0,30.43,South,179,0.0,3.0,26,0.00,,,0.00,865,weatherlink.com 1.10,2013-05-01 18:29:00,
2013-05-01 14:44:00,71.4,33.0,30.43,SSW,198,1.0,5.0,24,0.00,,,0.00,824,weatherlink.com 1.10,2013-05-01 18:44:00,
2013-05-01 14:59:00,70.9,32.0,30.42,SW,231,2.0,6.0,24,0.00,,,0.00,798,weatherlink.com 1.10,2013-05-01 18:59:00,
2013-05-01 15:14:00,70.8,32.0,30.42,SSE,165,4.0,4.0,24,0.00,,,0.00,722,weatherlink.com 1.10,2013-05-01 19:14:00,
2013-05-01 15:29:00,69.7,32.0,30.43,South,184,2.0,4.0,25,0.00,,,0.00,183,weatherlink.com 1.10,2013-05-01 19:29:00,
2013-05-01 15:44:00,68.8,31.0,30.42,South,172,0.0,5.0,25,0.00,,,0.00,195,weatherlink.com 1.10,2013-05-01 19:44:00,
2013-05-01 15:59:00,69.0,31.0,30.42,South,178,1.0,5.0,24,0.00,,,0.00,580,weatherlink.com 1.10,2013-05-01 19:59:00,
2013-05-01 16:14:00,68.6,32.0,30.42,SSE,156,1.0,4.0,26,0.00,,,0.00,531,weatherlink.com 1.10,2013-05-01 20:14:00,
2013-05-01 16:29:00,68.2,32.0,30.42,SSE,163,2.0,4.0,26,0.00,,,0.00,320,weatherlink.com 1.10,2013-05-01 20:29:00,
2013-05-01 16:44:00,67.9,32.0,30.43,SE,134,0.0,4.0,26,0.00,,,0.00,297,weatherlink.com 1.10,2013-05-01 20:44:00,
2013-05-01 16:59:00,67.8,32.0,30.42,SE,128,1.0,5.0,27,0.00,,,0.00,236,weatherlink.com 1.10,2013-05-01 20:59:00,
2013-05-01 17:14:00,67.6,32.0,30.42,SW,217,0.0,3.0,27,0.00,,,0.00,160,weatherlink.com 1.10,2013-05-01 21:14:00,
2013-05-01 17:29:00,67.3,32.0,30.43,SW,217,1.0,3.0,27,0.00,,,0.00,227,weatherlink.com 1.10,2013-05-01 21:29:00,
2013-05-01 17:44:00,66.9,32.0,30.43,South,173,2.0,4.0,27,0.00,,,0.00,283,weatherlink.com 1.10,2013-05-01 21:44:00,
2013-05-01 17:59:00,66.4,31.0,30.43,SSW,200,0.0,3.0,27,0.00,,,0.00,86,weatherlink.com 1.10,2013-05-01 21:59:00,
2013-05-01 18:14:00,66.6,31.0,30.43,SW,227,1.0,2.0,27,0.00,,,0.00,171,weatherlink.com 1.10,2013-05-01 22:14:00,
2013-05-01 18:29:00,65.4,31.0,30.43,SSE,154,1.0,2.0,28,0.00,,,0.00,47,weatherlink.com 1.10,2013-05-01 22:29:00,
2013-05-01 18:44:00,64.6,31.0,30.44,South,176,1.0,2.0,29,0.00,,,0.00,26,weatherlink.com 1.10,2013-05-01 22:44:00,
2013-05-01 18:59:00,63.9,31.0,30.45,South,176,2.0,2.0,29,0.00,,,0.00,19,weatherlink.com 1.10,2013-05-01 22:59:00,
2013-05-01 19:14:00,63.0,30.0,30.45,South,176,1.0,2.0,29,0.00,,,0.00,11,weatherlink.com 1.10,2013-05-01 23:14:00,
2013-05-01 19:29:00,62.1,30.0,30.45,South,176,0.0,1.0,30,0.00,,,0.00,5,weatherlink.com 1.10,2013-05-01 23:29:00,
2013-05-01 19:44:00,61.3,30.0,30.45,South,176,0.0,1.0,31,0.00,,,0.00,0,weatherlink.com 1.10,2013-05-01 23:44:00,
2013-05-01 19:59:00,60.6,30.0,30.45,South,176,0.0,0.0,32,0.00,,,0.00,0,weatherlink.com 1.10,2013-05-01 23:59:00,
2013-05-01 20:14:00,59.2,33.0,30.45,South,176,0.0,1.0,37,0.00,,,0.00,0,weatherlink.com 1.10,2013-05-02 00:14:00,
2013-05-01 20:29:00,57.7,36.0,30.45,South,176,1.0,1.0,45,0.00,,,0.00,0,weatherlink.com 1.10,2013-05-02 00:29:00,
2013-05-01 20:44:00,56.3,36.0,30.45,South,176,0.0,1.0,46,0.00,,,0.00,0,weatherlink.com 1.10,2013-05-02 00:44:00,
2013-05-01 20:59:00,55.1,36.0,30.45,South,176,1.0,1.0,48,0.00,,,0.00,0,weatherlink.com 1.10,2013-05-02 00:59:00,
2013-05-01 21:14:00,54.6,36.0,30.45,South,176,0.0,0.0,50,0.00,,,0.00,0,weatherlink.com 1.10,2013-05-02 01:14:00,
2013-05-01 21:29:00,53.9,36.0,30.46,South,176,0.0,1.0,51,0.00,,,0.00,0,weatherlink.com 1.10,2013-05-02 01:29:00,
2013-05-01 21:44:00,53.3,34.0,30.46,South,176,0.0,0.0,49,0.00,,,0.00,0,weatherlink.com 1.10,2013-05-02 01:44:00,
2013-05-01 21:59:00,52.7,34.0,30.46,South,176,0.0,1.0,50,0.00,,,0.00,0,weatherlink.com 1.10,2013-05-02 01:59:00,
2013-05-01 22:14:00,52.2,34.0,30.46,South,176,0.0,0.0,51,0.00,,,0.00,0,weatherlink.com 1.10,2013-05-02 02:14:00,
2013-05-01 22:29:00,51.7,35.0,30.46,South,176,0.0,1.0,54,0.00,,,0.00,0,weatherlink.com 1.10,2013-05-02 02:29:00,
2013-05-01 22:44:00,51.2,35.0,30.46,South,176,0.0,0.0,54,0.00,,,0.00,0,weatherlink.com 1.10,2013-05-02 02:44:00,
2013-05-01 22:59:00,50.7,36.0,30.45,South,176,0.0,0.0,57,0.00,,,0.00,0,weatherlink.com 1.10,2013-05-02 02:59:00,
2013-05-01 23:14:00,50.2,36.0,30.45,South,176,0.0,0.0,58,0.00,,,0.00,0,weatherlink.com 1.10,2013-05-02 03:14:00,
2013-05-01 23:29:00,49.7,34.0,30.45,South,176,0.0,0.0,56,0.00,,,0.00,0,weatherlink.com 1.10,2013-05-02 03:29:00,
2013-05-01 23:44:00,48.8,37.0,30.45,South,176,0.0,0.0,64,0.00,,,0.00,0,weatherlink.com 1.10,2013-05-02 03:44:00,
2013-05-01 23:59:00,48.4,37.0,30.44,South,176,0.0,0.0,66,0.00,,,0.00,0,weatherlink.com 1.10,2013-05-02 03:59:00,